Time;durP1;ratioP1;P1;durP2;ratioP2;P2;SDS_P1;SDS_P2;PMS_P1;PMS_P2;Temp;Humidity;BMP_temperature;BMP_pressure;BME280_temperature;BME280_humidity;BME280_pressure;Samples;Min_cycle;Max_cycle;Signal;HPM_P1;HPM_P2
2022/07/25 00:01:35;;;;;;;9.05;6.10;;;16.60;99.90;;;;;;5033424;28;20458;-69
2022/07/25 00:04:00;;;;;;;10.25;6.30;;;16.70;99.90;;;;;;5031297;28;20076;-68
2022/07/25 00:06:26;;;;;;;10.80;8.20;;;16.70;99.90;;;;;;5031417;28;20053;-68
2022/07/25 00:08:51;;;;;;;9.95;7.85;;;16.80;99.90;;;;;;5033164;28;20497;-68
2022/07/25 00:11:17;;;;;;;16.92;9.65;;;16.90;99.90;;;;;;5032389;28;20095;-68
2022/07/25 00:13:43;;;;;;;13.57;8.70;;;16.90;99.90;;;;;;5033264;28;20025;-68
2022/07/25 00:16:08;;;;;;;9.60;7.60;;;17.00;99.90;;;;;;5033213;28;20473;-68
2022/07/25 00:18:34;;;;;;;12.90;8.48;;;17.00;99.90;;;;;;5033102;28;20037;-68
2022/07/25 00:21:00;;;;;;;18.08;9.95;;;17.10;99.90;;;;;;5033122;28;20026;-68
2022/07/25 00:23:25;;;;;;;12.57;9.20;;;17.30;99.90;;;;;;5033220;28;20095;-68
2022/07/25 00:25:51;;;;;;;11.63;8.38;;;17.30;99.90;;;;;;5032127;28;20140;-68
2022/07/25 00:28:16;;;;;;;12.30;8.07;;;17.40;99.90;;;;;;5032969;28;20025;-68
2022/07/25 00:30:42;;;;;;;9.05;6.72;;;17.50;99.90;;;;;;5033005;28;20022;-68
2022/07/25 00:33:07;;;;;;;14.70;9.23;;;17.50;99.90;;;;;;5033144;28;20101;-68
2022/07/25 00:35:33;;;;;;;16.02;8.60;;;17.60;99.90;;;;;;5032945;28;20026;-68
2022/07/25 00:37:58;;;;;;;11.95;7.20;;;17.60;99.90;;;;;;5032992;28;20034;-68
2022/07/25 00:40:24;;;;;;;7.90;6.80;;;17.60;99.90;;;;;;5032140;28;20068;-68
2022/07/25 00:42:50;;;;;;;11.38;7.40;;;17.70;99.90;;;;;;5033365;28;20029;-68
2022/07/25 00:45:16;;;;;;;11.18;7.18;;;17.70;99.90;;;;;;5033214;28;20030;-69
2022/07/25 00:47:41;;;;;;;12.55;9.27;;;17.70;99.90;;;;;;5033037;28;20064;-68
2022/07/25 00:50:07;;;;;;;13.80;8.90;;;17.80;99.90;;;;;;5033198;28;20024;-68
2022/07/25 00:52:34;;;;;;;14.07;8.13;;;17.80;99.90;;;;;;5032869;28;20473;-68
2022/07/25 00:55:00;;;;;;;15.43;10.27;;;17.90;99.90;;;;;;5036713;28;20104;-68
2022/07/25 00:57:26;;;;;;;14.20;8.93;;;17.90;99.90;;;;;;5035478;28;20514;-68
2022/07/25 00:59:51;;;;;;;21.17;10.07;;;17.90;99.90;;;;;;5037112;28;20030;-68
2022/07/25 01:02:17;;;;;;;15.85;9.48;;;17.90;99.90;;;;;;5036842;28;20458;-68
2022/07/25 01:04:42;;;;;;;13.48;9.88;;;18.00;99.90;;;;;;5037669;28;20116;-68
2022/07/25 01:07:08;;;;;;;12.70;9.40;;;18.00;99.90;;;;;;5037205;28;20029;-68
2022/07/25 01:09:34;;;;;;;18.45;10.60;;;18.10;99.90;;;;;;5036175;28;20022;-69
2022/07/25 01:11:59;;;;;;;16.27;10.85;;;18.10;99.90;;;;;;5036364;28;20021;-68
2022/07/25 01:14:25;;;;;;;14.90;10.55;;;18.20;99.90;;;;;;5033330;28;20040;-68
2022/07/25 01:16:51;;;;;;;15.35;11.13;;;18.20;99.90;;;;;;5035983;28;20033;-69
2022/07/25 01:19:16;;;;;;;11.77;9.20;;;18.30;99.90;;;;;;5036569;28;20037;-68
2022/07/25 01:21:42;;;;;;;15.57;9.95;;;18.40;99.90;;;;;;5036150;28;20057;-69
2022/07/25 01:24:09;;;;;;;17.65;10.57;;;18.40;99.90;;;;;;5033795;28;20102;-68
2022/07/25 01:26:36;;;;;;;18.98;13.02;;;18.50;99.90;;;;;;5032940;28;20033;-69
2022/07/25 01:29:02;;;;;;;18.90;11.95;;;18.60;99.90;;;;;;5036227;28;20095;-69
2022/07/25 01:31:28;;;;;;;16.27;12.48;;;18.60;99.90;;;;;;5036251;28;20538;-69
2022/07/25 01:33:53;;;;;;;19.98;11.70;;;18.70;99.90;;;;;;5035929;28;20026;-69
2022/07/25 01:36:19;;;;;;;15.65;11.65;;;18.80;99.90;;;;;;5035917;28;20021;-69
2022/07/25 01:38:45;;;;;;;18.10;11.40;;;18.80;99.90;;;;;;5034711;28;20029;-68
2022/07/25 01:41:10;;;;;;;13.05;11.43;;;18.80;99.90;;;;;;5035817;28;20037;-69
2022/07/25 01:43:36;;;;;;;12.60;10.70;;;18.90;99.90;;;;;;5036032;28;20033;-69
2022/07/25 01:46:01;;;;;;;17.08;12.98;;;18.90;99.90;;;;;;5035073;28;20031;-69
2022/07/25 01:48:27;;;;;;;29.60;13.45;;;19.00;99.90;;;;;;5035493;28;20030;-69
2022/07/25 01:50:53;;;;;;;15.68;12.35;;;19.00;99.90;;;;;;5034363;28;20029;-69
2022/07/25 01:53:18;;;;;;;19.02;13.00;;;19.00;99.90;;;;;;5034673;28;20121;-69
2022/07/25 01:55:45;;;;;;;15.48;11.50;;;19.00;99.90;;;;;;5035583;28;20025;-69
2022/07/25 01:58:10;;;;;;;17.67;14.05;;;19.00;99.90;;;;;;5035526;28;20036;-69
2022/07/25 02:00:36;;;;;;;19.48;12.55;;;19.00;99.90;;;;;;5035429;28;20037;-69
2022/07/25 02:05:45;;;;;;;15.98;12.05;;;19.00;99.90;;;;;;5033485;28;20033;-68
2022/07/25 02:08:11;;;;;;;18.70;11.70;;;19.00;99.90;;;;;;5035125;28;20029;-69
2022/07/25 02:10:37;;;;;;;18.45;13.85;;;18.90;99.90;;;;;;5035845;28;20454;-69
2022/07/25 02:13:02;;;;;;;23.45;13.00;;;18.90;99.90;;;;;;5035528;28;20466;-69
2022/07/25 02:15:28;;;;;;;18.50;14.23;;;18.90;99.90;;;;;;5035201;28;20067;-69
2022/07/25 02:17:54;;;;;;;20.00;13.30;;;18.90;99.90;;;;;;5034990;28;20033;-68
2022/07/25 02:20:19;;;;;;;15.77;12.70;;;18.90;99.90;;;;;;5034104;28;20562;-69
2022/07/25 02:22:45;;;;;;;22.63;12.48;;;18.90;99.90;;;;;;5035335;28;20033;-69
2022/07/25 02:25:10;;;;;;;18.35;13.95;;;18.80;99.90;;;;;;5035016;28;20469;-69
2022/07/25 02:27:36;;;;;;;23.85;13.98;;;18.70;99.90;;;;;;5033528;28;20029;-69
2022/07/25 02:30:03;;;;;;;19.63;13.52;;;18.70;99.90;;;;;;5034081;28;20018;-68
2022/07/25 02:32:29;;;;;;;18.05;13.73;;;18.60;99.90;;;;;;5013668;28;20120;-69
2022/07/25 02:34:55;;;;;;;17.40;13.60;;;18.60;99.90;;;;;;5014978;28;20105;-69
2022/07/25 02:37:21;;;;;;;19.60;14.15;;;18.60;99.90;;;;;;5014987;28;20474;-69
2022/07/25 02:39:46;;;;;;;17.20;14.38;;;18.60;99.90;;;;;;5014959;28;20040;-69
2022/07/25 02:42:12;;;;;;;19.60;14.35;;;18.60;99.90;;;;;;5031870;28;20030;-68
2022/07/25 02:44:37;;;;;;;21.55;14.27;;;18.60;99.90;;;;;;5033308;28;20029;-69
2022/07/25 02:47:03;;;;;;;30.90;15.63;;;18.60;99.90;;;;;;5034478;28;20024;-69
2022/07/25 02:49:28;;;;;;;25.42;15.43;;;18.60;99.90;;;;;;5034422;28;20036;-69
2022/07/25 02:51:56;;;;;;;19.45;14.80;;;18.60;99.90;;;;;;5033386;28;20029;-69
2022/07/25 02:54:22;;;;;;;18.08;14.75;;;18.70;99.90;;;;;;5033133;28;20020;-69
2022/07/25 02:56:47;;;;;;;17.95;14.20;;;18.60;99.90;;;;;;5034903;28;20026;-69
2022/07/25 02:59:13;;;;;;;20.05;14.98;;;18.70;99.90;;;;;;5034643;28;20450;-69
2022/07/25 03:01:38;;;;;;;23.27;14.80;;;18.70;99.90;;;;;;5033349;28;20029;-68
2022/07/25 03:04:04;;;;;;;19.05;14.85;;;18.70;99.90;;;;;;5034279;28;20128;-68
2022/07/25 03:06:30;;;;;;;26.75;15.60;;;18.70;99.90;;;;;;5034213;28;20028;-69
2022/07/25 03:08:55;;;;;;;21.52;14.95;;;18.60;99.90;;;;;;5034058;28;20374;-69
2022/07/25 03:11:21;;;;;;;21.77;16.13;;;18.70;99.90;;;;;;5033479;28;20021;-68
2022/07/25 03:13:46;;;;;;;17.52;14.40;;;18.70;99.90;;;;;;5033282;28;20433;-69
2022/07/25 03:16:12;;;;;;;20.23;14.85;;;18.60;99.90;;;;;;5034164;28;20424;-69
2022/07/25 03:18:38;;;;;;;25.88;14.73;;;18.70;99.90;;;;;;5033881;28;20402;-69
2022/07/25 03:21:04;;;;;;;17.23;15.30;;;18.70;99.90;;;;;;5032805;28;20485;-69
2022/07/25 03:23:29;;;;;;;17.95;13.80;;;18.60;99.90;;;;;;5033937;28;20541;-69
2022/07/25 03:25:55;;;;;;;22.40;14.40;;;18.70;99.90;;;;;;5034620;28;20025;-69
2022/07/25 03:28:21;;;;;;;21.98;15.63;;;18.60;99.90;;;;;;5034998;28;20501;-69
2022/07/25 03:30:47;;;;;;;26.20;16.92;;;18.70;99.90;;;;;;5028494;28;20026;-69
2022/07/25 03:33:12;;;;;;;17.83;15.82;;;18.60;99.90;;;;;;5023573;28;20057;-69
2022/07/25 03:35:38;;;;;;;24.05;16.52;;;18.60;99.90;;;;;;5033660;28;20037;-69
2022/07/25 03:38:04;;;;;;;18.42;13.55;;;18.70;99.90;;;;;;5033746;28;20021;-69
2022/07/25 03:40:30;;;;;;;21.08;15.65;;;18.70;99.90;;;;;;5032707;28;20025;-68
2022/07/25 03:42:56;;;;;;;18.90;14.60;;;18.70;99.90;;;;;;5033669;28;20497;-69
2022/07/25 03:45:22;;;;;;;21.15;15.55;;;18.70;99.90;;;;;;5033581;28;20033;-69
2022/07/25 03:47:47;;;;;;;26.00;15.02;;;18.70;99.90;;;;;;5033439;28;20025;-69
2022/07/25 03:50:13;;;;;;;21.63;13.95;;;18.80;99.90;;;;;;5033646;28;20022;-69
2022/07/25 03:52:38;;;;;;;16.98;14.27;;;18.80;99.90;;;;;;5032024;28;20069;-69
2022/07/25 03:55:09;;;;;;;23.70;16.00;;;18.80;99.90;;;;;;5033481;28;20022;-69
2022/07/25 03:57:35;;;;;;;18.98;14.55;;;18.80;99.90;;;;;;5033344;28;20028;-69
2022/07/25 04:00:01;;;;;;;24.80;16.15;;;18.90;99.90;;;;;;5033501;28;20021;-69
2022/07/25 04:02:26;;;;;;;22.67;13.98;;;18.90;99.90;;;;;;5032553;28;20024;-69
2022/07/25 04:04:52;;;;;;;23.48;14.48;;;18.90;99.90;;;;;;5033881;28;20105;-69
2022/07/25 04:07:18;;;;;;;18.08;15.40;;;19.00;99.90;;;;;;5033284;28;20025;-69
2022/07/25 04:09:44;;;;;;;21.88;13.70;;;19.00;99.90;;;;;;5031782;28;20032;-68
2022/07/25 04:12:09;;;;;;;19.83;14.70;;;19.00;99.90;;;;;;5033402;28;20040;-69
2022/07/25 04:14:35;;;;;;;18.88;14.13;;;19.00;99.90;;;;;;5033252;28;20037;-69
2022/07/25 04:17:01;;;;;;;18.25;12.63;;;19.00;99.90;;;;;;5033257;28;20101;-69
2022/07/25 04:19:26;;;;;;;16.45;12.07;;;19.00;99.90;;;;;;5032705;28;20457;-68
2022/07/25 04:21:52;;;;;;;15.10;11.68;;;19.00;99.90;;;;;;5031221;28;20041;-69
2022/07/25 04:24:17;;;;;;;16.15;11.82;;;19.10;99.90;;;;;;5029480;28;20026;-68
2022/07/25 04:26:43;;;;;;;20.23;13.00;;;19.10;99.90;;;;;;5032706;28;20071;-69
2022/07/25 04:29:08;;;;;;;16.55;12.07;;;19.10;99.90;;;;;;5026372;28;20030;-69
2022/07/25 04:31:34;;;;;;;17.63;12.93;;;19.10;99.90;;;;;;5033983;28;20045;-69
2022/07/25 04:34:00;;;;;;;18.77;10.65;;;19.20;99.90;;;;;;5035789;28;20481;-69
2022/07/25 04:36:25;;;;;;;15.73;13.50;;;19.20;99.90;;;;;;5037078;28;20025;-69
2022/07/25 04:38:52;;;;;;;14.32;10.75;;;19.30;99.90;;;;;;5036063;28;20540;-68
2022/07/25 04:41:17;;;;;;;12.30;10.05;;;19.40;99.90;;;;;;5035590;28;20116;-69
2022/07/25 04:43:43;;;;;;;12.80;9.65;;;19.40;99.90;;;;;;5036760;28;20108;-68
2022/07/25 04:46:09;;;;;;;15.60;10.50;;;19.50;99.90;;;;;;5025455;28;20022;-68
2022/07/25 04:48:34;;;;;;;16.42;10.30;;;19.50;99.90;;;;;;5016947;28;20026;-69
2022/07/25 04:51:00;;;;;;;19.30;9.95;;;19.60;99.90;;;;;;5028189;28;20478;-68
2022/07/25 04:53:26;;;;;;;22.05;10.10;;;19.70;99.90;;;;;;5037290;28;20083;-68
2022/07/25 04:55:51;;;;;;;14.95;12.18;;;19.70;99.90;;;;;;5036592;28;20021;-69
2022/07/25 04:58:17;;;;;;;16.45;11.65;;;19.80;99.90;;;;;;5036528;28;20037;-69
2022/07/25 05:00:43;;;;;;;11.20;9.63;;;19.80;99.90;;;;;;5033665;28;20091;-67
2022/07/25 05:03:09;;;;;;;12.50;9.50;;;19.80;99.90;;;;;;5037049;28;20032;-69
2022/07/25 05:05:34;;;;;;;11.10;9.23;;;19.80;99.90;;;;;;5033272;28;20022;-67
2022/07/25 05:08:00;;;;;;;13.45;10.13;;;19.80;99.90;;;;;;5033929;28;20029;-68
2022/07/25 05:10:27;;;;;;;11.52;10.18;;;19.90;99.90;;;;;;5035793;28;20033;-68
2022/07/25 05:12:53;;;;;;;14.48;11.18;;;19.90;99.90;;;;;;5036706;28;20018;-68
2022/07/25 05:15:18;;;;;;;17.08;12.57;;;19.90;99.90;;;;;;5036393;28;20021;-68
2022/07/25 05:17:44;;;;;;;14.35;12.85;;;20.00;99.90;;;;;;5034531;28;20029;-68
2022/07/25 05:20:10;;;;;;;17.38;11.50;;;20.00;99.90;;;;;;5036441;28;20033;-68
2022/07/25 05:22:36;;;;;;;14.38;10.38;;;20.00;99.90;;;;;;5036634;28;20045;-68
2022/07/25 05:25:05;;;;;;;16.88;10.27;;;20.10;99.90;;;;;;5036225;28;20068;-68
2022/07/25 05:27:30;;;;;;;17.05;11.18;;;20.20;99.90;;;;;;5035294;28;20025;-69
2022/07/25 05:29:56;;;;;;;16.13;11.35;;;20.20;99.90;;;;;;5036776;28;20083;-69
2022/07/25 05:32:22;;;;;;;12.93;10.43;;;20.10;99.90;;;;;;5036203;28;20028;-69
2022/07/25 05:34:50;;;;;;;13.75;9.10;;;20.10;99.90;;;;;;5036125;28;20018;-69
2022/07/25 05:37:16;;;;;;;10.50;8.82;;;20.20;99.90;;;;;;5033236;28;20500;-68
2022/07/25 05:39:42;;;;;;;16.45;11.43;;;20.30;99.90;;;;;;5035123;28;20061;-69
2022/07/25 05:42:07;;;;;;;14.50;9.85;;;20.40;99.90;;;;;;5035936;28;20029;-68
2022/07/25 05:44:33;;;;;;;14.02;8.85;;;20.40;99.90;;;;;;5036475;28;20365;-69
2022/07/25 05:46:59;;;;;;;9.18;8.27;;;20.40;99.90;;;;;;5035035;28;20079;-69
2022/07/25 05:49:24;;;;;;;13.93;9.90;;;20.50;99.90;;;;;;5036450;28;20049;-69
2022/07/25 05:51:50;;;;;;;16.13;9.70;;;20.60;99.90;;;;;;5037114;28;20474;-69
2022/07/25 05:54:16;;;;;;;10.05;8.52;;;20.60;99.90;;;;;;5036302;28;20091;-69
2022/07/25 05:56:42;;;;;;;10.60;8.48;;;20.60;99.90;;;;;;5034400;28;20695;-68
2022/07/25 05:59:08;;;;;;;14.02;8.50;;;20.70;99.90;;;;;;5036115;28;20115;-69
2022/07/25 06:01:33;;;;;;;13.98;10.02;;;20.80;99.90;;;;;;5034967;28;20033;-69
2022/07/25 06:03:59;;;;;;;12.10;8.90;;;21.00;99.90;;;;;;5033850;28;20113;-68
2022/07/25 06:06:25;;;;;;;8.90;7.50;;;21.20;99.90;;;;;;5035981;28;20049;-69
2022/07/25 06:08:50;;;;;;;9.80;7.97;;;21.40;99.90;;;;;;5035329;28;20026;-69
2022/07/25 06:11:16;;;;;;;11.05;8.38;;;21.60;99.90;;;;;;5035461;28;20057;-69
2022/07/25 06:13:41;;;;;;;10.48;7.78;;;21.80;99.90;;;;;;5034373;28;20044;-69
2022/07/25 06:16:07;;;;;;;12.93;8.90;;;22.00;99.90;;;;;;5035397;28;20022;-69
2022/07/25 06:18:33;;;;;;;13.82;8.88;;;22.10;99.90;;;;;;5035144;28;20040;-69
2022/07/25 06:20:59;;;;;;;10.95;8.30;;;22.10;99.90;;;;;;5035253;28;20033;-69
2022/07/25 06:23:25;;;;;;;14.27;8.98;;;22.10;99.90;;;;;;5034400;28;20047;-68
2022/07/25 06:25:50;;;;;;;10.38;7.90;;;22.00;99.90;;;;;;5034977;28;20041;-69
2022/07/25 06:28:16;;;;;;;10.65;7.45;;;22.00;99.90;;;;;;5031058;28;20072;-69
2022/07/25 06:30:43;;;;;;;13.35;8.98;;;22.00;99.90;;;;;;5034974;28;20020;-69
2022/07/25 06:33:09;;;;;;;9.15;7.78;;;22.00;99.90;;;;;;5034862;28;20033;-69
2022/07/25 06:35:34;;;;;;;12.73;9.38;;;21.80;99.90;;;;;;5035277;28;20373;-69
2022/07/25 06:38:00;;;;;;;13.05;8.80;;;21.80;99.90;;;;;;5033188;28;20029;-69
2022/07/25 06:40:26;;;;;;;13.73;8.73;;;21.70;99.90;;;;;;5034559;28;20026;-69
2022/07/25 06:42:51;;;;;;;13.57;8.82;;;21.70;99.90;;;;;;5035322;28;20036;-69
2022/07/25 06:45:17;;;;;;;11.05;7.55;;;21.60;99.90;;;;;;5034821;28;20025;-69
2022/07/25 06:47:43;;;;;;;7.57;6.57;;;21.60;99.90;;;;;;5034586;28;20025;-69
2022/07/25 06:50:13;;;;;;;12.10;8.65;;;21.60;99.90;;;;;;5032873;28;20040;-69
2022/07/25 06:52:39;;;;;;;18.23;8.75;;;21.60;99.90;;;;;;5034310;28;20032;-69
2022/07/25 06:55:06;;;;;;;10.68;8.85;;;21.60;99.90;;;;;;5034908;28;20025;-69
2022/07/25 06:57:32;;;;;;;15.55;8.75;;;21.70;99.90;;;;;;5034500;28;20079;-69
2022/07/25 06:59:57;;;;;;;10.95;7.70;;;21.70;99.90;;;;;;5025798;28;20029;-69
2022/07/25 07:02:23;;;;;;;10.48;8.20;;;21.70;99.90;;;;;;5031838;28;20095;-68
2022/07/25 07:04:49;;;;;;;13.75;8.25;;;21.80;99.90;;;;;;5034454;28;20435;-70
2022/07/25 07:07:15;;;;;;;9.70;7.07;;;21.80;99.90;;;;;;5034519;28;20500;-68
2022/07/25 07:09:41;;;;;;;12.52;7.80;;;21.90;99.90;;;;;;5020717;28;20026;-69
2022/07/25 07:12:08;;;;;;;12.00;8.02;;;22.10;99.90;;;;;;5014688;28;20157;-69
2022/07/25 07:14:33;;;;;;;12.98;7.95;;;22.10;99.90;;;;;;5024953;28;20474;-69
2022/07/25 07:16:59;;;;;;;18.30;8.23;;;22.30;99.90;;;;;;5033932;28;20100;-69
2022/07/25 07:19:24;;;;;;;9.57;7.43;;;22.30;99.90;;;;;;5032698;28;20112;-69
2022/07/25 07:21:50;;;;;;;9.52;7.65;;;22.40;99.90;;;;;;5033972;28;20034;-69
2022/07/25 07:24:16;;;;;;;9.75;7.68;;;22.50;99.90;;;;;;5033147;28;20025;-69
2022/07/25 07:26:42;;;;;;;12.35;7.43;;;22.60;99.90;;;;;;5033817;28;20037;-69
2022/07/25 07:29:07;;;;;;;12.13;7.53;;;22.70;99.90;;;;;;5033732;28;20026;-69
2022/07/25 07:31:34;;;;;;;15.45;6.72;;;22.80;99.90;;;;;;5031838;28;20103;-69
2022/07/25 07:34:01;;;;;;;14.07;7.68;;;22.90;99.90;;;;;;5030624;28;20025;-69
2022/07/25 07:36:27;;;;;;;11.57;7.65;;;22.90;99.90;;;;;;5033102;28;20025;-69
2022/07/25 07:38:53;;;;;;;11.70;6.80;;;22.90;99.90;;;;;;5033715;28;20138;-69
2022/07/25 07:41:18;;;;;;;10.70;7.05;;;23.00;99.90;;;;;;5029195;28;20086;-69
2022/07/25 07:43:44;;;;;;;12.48;7.72;;;23.10;99.90;;;;;;5031321;28;20445;-70
2022/07/25 07:46:10;;;;;;;13.23;6.88;;;23.20;99.90;;;;;;5033962;28;20496;-69
2022/07/25 07:48:37;;;;;;;11.02;6.32;;;23.30;99.90;;;;;;5033480;28;20025;-69
2022/07/25 07:51:02;;;;;;;16.10;6.78;;;23.50;99.90;;;;;;5033544;28;20108;-69
2022/07/25 07:56:13;;;;;;;19.23;8.02;;;23.60;99.90;;;;;;5033966;28;20044;-69
2022/07/25 07:58:39;;;;;;;11.70;6.70;;;23.60;99.90;;;;;;5033465;28;20461;-69
2022/07/25 08:01:05;;;;;;;10.52;6.28;;;23.60;99.90;;;;;;5032198;28;20033;-69
2022/07/25 08:03:31;;;;;;;11.80;6.35;;;23.80;99.90;;;;;;5031152;28;20485;-69
2022/07/25 08:05:58;;;;;;;12.07;6.35;;;23.90;99.90;;;;;;5032020;28;20075;-69
2022/07/25 08:08:23;;;;;;;16.33;6.28;;;24.00;99.90;;;;;;5033369;28;20029;-69
2022/07/25 08:10:49;;;;;;;9.52;6.28;;;24.40;99.90;;;;;;5033498;28;20017;-69
2022/07/25 08:13:22;;;;;;;11.20;6.00;;;24.90;99.90;;;;;;5034741;28;20385;-69
2022/07/25 08:15:52;;;;;;;9.05;5.50;;;25.00;99.90;;;;;;5033425;28;20381;-69
2022/07/25 08:18:18;;;;;;;10.13;6.47;;;25.30;99.90;;;;;;5033252;28;20485;-69
2022/07/25 08:20:47;;;;;;;15.18;6.60;;;25.60;99.90;;;;;;5033268;28;20017;-69
2022/07/25 08:23:13;;;;;;;7.75;5.97;;;25.70;99.90;;;;;;5033317;28;20021;-69
2022/07/25 08:25:40;;;;;;;11.45;6.93;;;25.20;99.90;;;;;;5031255;28;20030;-69
2022/07/25 08:28:06;;;;;;;14.18;6.07;;;25.20;99.90;;;;;;5033186;28;20036;-69
2022/07/25 08:30:32;;;;;;;12.80;6.53;;;25.00;99.90;;;;;;5033278;28;20666;-69
2022/07/25 08:33:00;;;;;;;7.10;5.93;;;25.30;99.90;;;;;;5033214;28;20017;-69
2022/07/25 08:35:27;;;;;;;10.00;6.85;;;25.60;99.90;;;;;;5031329;28;20022;-70
2022/07/25 08:37:53;;;;;;;12.07;7.78;;;25.60;99.90;;;;;;5033079;28;20021;-70
2022/07/25 08:40:21;;;;;;;19.55;6.90;;;25.40;99.90;;;;;;5033150;28;20030;-70
2022/07/25 08:42:47;;;;;;;9.00;6.03;;;25.20;99.90;;;;;;5032871;28;20109;-70
2022/07/25 08:45:15;;;;;;;10.38;6.60;;;25.30;99.90;;;;;;5031080;28;20745;-70
2022/07/25 08:47:42;;;;;;;10.32;6.30;;;25.40;99.90;;;;;;5032969;28;20025;-70
2022/07/25 08:50:10;;;;;;;7.97;6.40;;;25.50;99.90;;;;;;5033396;28;20029;-70
2022/07/25 08:52:37;;;;;;;10.65;6.82;;;25.80;99.90;;;;;;5033349;28;20101;-70
2022/07/25 08:55:04;;;;;;;12.45;6.20;;;26.10;99.90;;;;;;5031950;28;20021;-70
2022/07/25 08:57:30;;;;;;;8.65;6.40;;;26.30;99.90;;;;;;5032860;28;20060;-70
2022/07/25 08:59:57;;;;;;;11.40;7.55;;;26.30;99.90;;;;;;5032915;28;20061;-69
2022/07/25 09:02:25;;;;;;;9.18;6.15;;;26.20;99.90;;;;;;5032965;28;20108;-69
2022/07/25 09:04:50;;;;;;;9.07;6.55;;;26.40;99.90;;;;;;5032958;28;20101;-69
2022/07/25 09:07:16;;;;;;;13.00;6.28;;;26.50;99.90;;;;;;5031832;28;20509;-69
2022/07/25 09:09:43;;;;;;;9.07;6.63;;;26.60;99.90;;;;;;5032785;28;20025;-69
2022/07/25 09:12:09;;;;;;;8.10;6.90;;;26.40;99.90;;;;;;5033182;28;20049;-69
2022/07/25 09:14:43;;;;;;;11.05;6.85;;;26.30;99.90;;;;;;5034623;28;20443;-69
2022/07/25 09:17:09;;;;;;;8.35;6.38;;;26.30;99.90;;;;;;5030130;28;20041;-69
2022/07/25 09:19:35;;;;;;;10.07;7.13;;;26.40;99.90;;;;;;5036061;28;20026;-69
2022/07/25 09:22:03;;;;;;;18.73;7.55;;;26.80;99.90;;;;;;5035979;28;20493;-69
2022/07/25 09:24:30;;;;;;;12.68;7.43;;;26.70;99.90;;;;;;5036241;28;20097;-69
2022/07/25 09:27:00;;;;;;;9.80;7.15;;;26.60;99.90;;;;;;5033032;28;20035;-69
2022/07/25 09:29:29;;;;;;;8.88;7.97;;;26.40;99.90;;;;;;5035392;28;20032;-69
2022/07/25 09:31:56;;;;;;;11.63;7.63;;;26.30;99.90;;;;;;5036257;28;20030;-69
2022/07/25 09:34:33;;;;;;;12.43;6.80;;;26.70;99.90;;;;;;5036160;28;20433;-69
2022/07/25 09:37:00;;;;;;;18.45;7.75;;;27.00;99.90;;;;;;5033286;28;20017;-69
2022/07/25 09:39:40;;;;;;;14.95;8.27;;;26.90;99.90;;;;;;5036026;28;20025;-69
2022/07/25 09:42:20;;;;;;;14.10;7.68;;;26.80;99.90;;;;;;5036162;28;20031;-69
2022/07/25 09:45:06;;;;;;;10.90;7.57;;;26.90;99.90;;;;;;5036580;28;20373;-69
2022/07/25 09:47:37;;;;;;;15.30;8.50;;;27.30;99.90;;;;;;5035216;28;20037;-69
2022/07/25 09:50:04;;;;;;;12.20;7.03;;;27.60;99.90;;;;;;5035850;28;20026;-69
2022/07/25 09:52:30;;;;;;;14.07;8.27;;;28.00;99.90;;;;;;5035727;28;20108;-70
2022/07/25 09:54:56;;;;;;;12.93;9.07;;;27.80;99.90;;;;;;5035838;28;20105;-70
2022/07/25 09:57:25;;;;;;;11.68;9.32;;;27.40;99.90;;;;;;5033747;28;20499;-70
2022/07/25 09:59:50;;;;;;;14.30;8.55;;;27.10;99.90;;;;;;5036169;28;20088;-70
2022/07/25 10:02:48;;;;;;;20.33;9.57;;;27.30;99.90;;;;;;5035593;28;20033;-70
2022/07/25 10:05:34;;;;;;;12.00;8.95;;;27.40;99.90;;;;;;5035437;28;20029;-70
2022/07/25 10:08:06;;;;;;;13.70;8.63;;;27.50;99.90;;;;;;5034596;28;20037;-70
2022/07/25 10:10:38;;;;;;;18.15;9.00;;;27.70;99.90;;;;;;5035749;28;20018;-70
2022/07/25 10:13:10;;;;;;;17.85;10.10;;;27.90;99.90;;;;;;5035346;28;20032;-70
2022/07/25 10:15:50;;;;;;;11.85;9.57;;;28.20;99.90;;;;;;5033414;28;20083;-69
2022/07/25 10:18:22;;;;;;;16.60;10.07;;;27.70;99.90;;;;;;5034942;28;20148;-69
2022/07/25 10:20:50;;;;;;;14.48;10.77;;;27.30;99.90;;;;;;5035099;28;20486;-69
2022/07/25 10:23:22;;;;;;;16.63;11.40;;;27.10;99.90;;;;;;5035361;28;20435;-69
2022/07/25 10:25:59;;;;;;;18.08;11.10;;;27.00;99.90;;;;;;5032374;28;20061;-69
2022/07/25 10:28:38;;;;;;;15.43;11.73;;;27.00;99.90;;;;;;5034889;28;20025;-69
2022/07/25 10:31:14;;;;;;;18.83;12.43;;;27.20;99.90;;;;;;5035241;28;20036;-69
2022/07/25 10:33:41;;;;;;;21.95;12.82;;;27.20;99.90;;;;;;5035089;28;20025;-69
2022/07/25 10:36:07;;;;;;;19.85;12.25;;;27.40;99.90;;;;;;5033586;28;20164;-68
2022/07/25 10:38:33;;;;;;;21.15;10.82;;;27.30;99.90;;;;;;5035002;28;20083;-68
2022/07/25 10:41:03;;;;;;;16.02;11.50;;;27.40;99.90;;;;;;5034816;28;20026;-68
2022/07/25 10:43:36;;;;;;;14.82;10.77;;;27.20;99.90;;;;;;5034673;28;20025;-69
2022/07/25 10:46:14;;;;;;;17.73;10.57;;;27.30;99.90;;;;;;5033985;28;20057;-69
2022/07/25 10:48:40;;;;;;;14.95;11.18;;;27.20;99.90;;;;;;5033824;28;20500;-69
2022/07/25 10:51:10;;;;;;;23.50;12.50;;;27.00;99.90;;;;;;5034645;28;20478;-69
2022/07/25 10:53:44;;;;;;;16.58;10.20;;;26.80;99.90;;;;;;5034988;28;20037;-69
2022/07/25 10:56:23;;;;;;;19.27;12.27;;;26.60;99.90;;;;;;5033851;28;20041;-69
2022/07/25 10:58:52;;;;;;;20.15;13.20;;;26.30;99.90;;;;;;5035326;28;20033;-69
2022/07/25 11:01:32;;;;;;;30.48;14.77;;;26.20;99.90;;;;;;5034542;28;20067;-69
2022/07/25 11:04:13;;;;;;;20.25;15.20;;;25.80;99.90;;;;;;5034735;28;20029;-69
2022/07/25 11:06:41;;;;;;;25.88;16.30;;;25.50;99.90;;;;;;5031529;28;20014;-69
2022/07/25 11:09:20;;;;;;;18.90;12.60;;;25.20;99.90;;;;;;5030800;28;20041;-69
2022/07/25 11:11:49;;;;;;;20.80;13.48;;;24.90;99.90;;;;;;5034341;28;20378;-69
2022/07/25 11:14:36;;;;;;;25.88;16.33;;;24.70;99.90;;;;;;5034133;28;20074;-69
2022/07/25 11:17:10;;;;;;;20.55;17.00;;;24.50;99.90;;;;;;5033931;28;20045;-69
2022/07/25 11:19:35;;;;;;;;;;;24.20;99.90;;;;;;5033640;28;20405;-69
2022/07/25 11:22:03;;;;;;;26.73;18.63;;;24.20;99.90;;;;;;5034314;28;19931;-69
2022/07/25 11:24:46;;;;;;;23.98;17.17;;;23.90;99.90;;;;;;5034033;28;20018;-69
2022/07/25 11:27:20;;;;;;;32.80;21.65;;;23.80;99.90;;;;;;5034062;28;20036;-69
2022/07/25 11:29:46;;;;;;;31.60;22.85;;;23.50;99.90;;;;;;5032875;28;20029;-69
2022/07/25 11:32:12;;;;;;;29.25;22.25;;;23.10;99.90;;;;;;5034192;28;20021;-69
2022/07/25 11:34:57;;;;;;;29.33;20.25;;;22.80;99.90;;;;;;5034078;28;20033;-69
2022/07/25 11:37:22;;;;;;;34.75;25.23;;;22.80;99.90;;;;;;5034310;28;20021;-69
2022/07/25 11:39:48;;;;;;;36.83;24.30;;;22.80;99.90;;;;;;5032076;28;20044;-69
2022/07/25 11:42:16;;;;;;;39.13;25.65;;;22.90;99.90;;;;;;5033975;28;20022;-69
2022/07/25 11:44:50;;;;;;;32.05;23.27;;;23.10;99.90;;;;;;5034043;28;20029;-69
2022/07/25 11:47:30;;;;;;;34.03;25.35;;;23.40;99.90;;;;;;5032169;28;20041;-69
2022/07/25 11:50:02;;;;;;;36.72;24.90;;;23.40;99.90;;;;;;5031700;28;20151;-69
2022/07/25 11:52:36;;;;;;;35.67;23.55;;;23.40;99.90;;;;;;5034012;28;20364;-69
2022/07/25 11:55:03;;;;;;;;;;;23.30;99.90;;;;;;5034038;28;20095;-68
2022/07/25 11:57:35;;;;;;;39.10;24.27;;;23.30;99.90;;;;;;5032570;28;19913;-69
2022/07/25 12:00:04;;;;;;;36.75;25.23;;;23.20;99.90;;;;;;5034010;28;20389;-69
2022/07/25 12:02:31;;;;;;;34.53;23.40;;;23.20;99.90;;;;;;5033447;28;20029;-68
2022/07/25 12:05:11;;;;;;;34.45;26.08;;;23.30;99.90;;;;;;5033391;28;20033;-68
2022/07/25 12:07:44;;;;;;;35.65;24.88;;;23.60;99.90;;;;;;5031418;28;20075;-69
2022/07/25 12:10:20;;;;;;;28.85;23.75;;;24.00;99.90;;;;;;5033363;28;20087;-68
2022/07/25 12:12:54;;;;;;;33.35;24.02;;;24.30;99.90;;;;;;5033531;28;20382;-69
2022/07/25 12:15:31;;;;;;;37.95;23.05;;;24.30;99.90;;;;;;5033355;28;20079;-68
2022/07/25 12:17:58;;;;;;;30.98;21.83;;;24.30;99.90;;;;;;5032443;28;20026;-68
2022/07/25 12:20:26;;;;;;;38.63;21.15;;;24.30;99.90;;;;;;5033274;28;20040;-68
2022/07/25 12:22:57;;;;;;;35.40;22.77;;;24.40;99.90;;;;;;5033183;28;20025;-68
2022/07/25 12:25:23;;;;;;;34.17;25.05;;;24.20;99.90;;;;;;5033218;28;20017;-68
2022/07/25 12:27:49;;;;;;;39.13;26.95;;;24.00;99.90;;;;;;5032143;28;20389;-68
2022/07/25 12:30:15;;;;;;;37.03;26.00;;;23.60;99.90;;;;;;5033415;28;20033;-68
2022/07/25 12:32:42;;;;;;;36.72;24.80;;;23.20;99.90;;;;;;5033204;28;20075;-68
2022/07/25 12:35:09;;;;;;;36.78;23.75;;;23.00;99.90;;;;;;5033374;28;20026;-68
2022/07/25 12:37:36;;;;;;;35.90;26.17;;;22.90;99.90;;;;;;5031675;28;20039;-68
2022/07/25 12:40:03;;;;;;;33.40;23.30;;;22.80;99.90;;;;;;5033624;28;20026;-68